WMT482 LUKK-EKCH
Flight info
| Callsign | WMT482 |
|---|---|
| Flight time | N/A |
| Altitude | 34000 |
| Route | NUNTA DCT BUZZE DCT SOMET DCT SAT DCT KENIN DCT DUFES DCT LENOV DCT ROGAL DCT ARKUG DCT AMROR DCT ROE M743 TIDVU |
| Aircraft | A21N/M-SDE1E2E3FGIJ1J4RWXY/LB1 |
Departure
| Time | N/A |
|---|---|
| Airport | Chişinău International Airport (LUKK) |
Arrival
| Time | 2026-04-23 17:24 |
|---|---|
| Airport | Copenhagen Kastrup Airport (EKCH) |
| Time | Latitude | Longitude | Altitude | Speed | Heading |
|---|---|---|---|---|---|
| 2026-04-23 16:56 | 55.42417 | 13.63781 | 7837 ft | 269 kts | 241° |
| 2026-04-23 16:56 | 55.41845 | 13.60693 | 8102 ft | 265 kts | 268° |
| 2026-04-23 16:56 | 55.42115 | 13.57466 | 8144 ft | 264 kts | 283° |
| 2026-04-23 16:57 | 55.42563 | 13.54342 | 8141 ft | 263 kts | 283° |
| 2026-04-23 16:57 | 55.42997 | 13.51220 | 8141 ft | 263 kts | 282° |
| 2026-04-23 16:57 | 55.43422 | 13.48051 | 8140 ft | 263 kts | 282° |
| 2026-04-23 16:57 | 55.43830 | 13.44932 | 8140 ft | 263 kts | 282° |
| 2026-04-23 16:58 | 55.44234 | 13.41803 | 8140 ft | 263 kts | 282° |
| 2026-04-23 16:58 | 55.44642 | 13.38621 | 8140 ft | 263 kts | 282° |
| 2026-04-23 16:58 | 55.44976 | 13.35485 | 8063 ft | 259 kts | 273° |
| 2026-04-23 16:58 | 55.44964 | 13.32320 | 7681 ft | 258 kts | 266° |
| 2026-04-23 16:59 | 55.44826 | 13.29194 | 7268 ft | 258 kts | 264° |
| 2026-04-23 16:59 | 55.44656 | 13.26036 | 6895 ft | 257 kts | 264° |
| 2026-04-23 16:59 | 55.44474 | 13.22902 | 6524 ft | 255 kts | 264° |
| 2026-04-23 16:59 | 55.44287 | 13.19812 | 6154 ft | 254 kts | 264° |
| 2026-04-23 17:00 | 55.44094 | 13.16740 | 5783 ft | 253 kts | 264° |
| 2026-04-23 17:00 | 55.43892 | 13.13635 | 5401 ft | 252 kts | 264° |
| 2026-04-23 17:00 | 55.43687 | 13.10595 | 5165 ft | 250 kts | 264° |
| 2026-04-23 17:00 | 55.43488 | 13.07548 | 5151 ft | 252 kts | 264° |
| 2026-04-23 17:01 | 55.43284 | 13.04490 | 5150 ft | 253 kts | 264° |
| 2026-04-23 17:01 | 55.43085 | 13.01402 | 5151 ft | 253 kts | 264° |
| 2026-04-23 17:01 | 55.42884 | 12.98315 | 5121 ft | 250 kts | 264° |
| 2026-04-23 17:01 | 55.42686 | 12.95262 | 4757 ft | 251 kts | 264° |
| 2026-04-23 17:02 | 55.42484 | 12.92195 | 4333 ft | 252 kts | 265° |
| 2026-04-23 17:02 | 55.42267 | 12.89125 | 3941 ft | 252 kts | 264° |
| 2026-04-23 17:02 | 55.42049 | 12.86057 | 3585 ft | 251 kts | 264° |
| 2026-04-23 17:02 | 55.41833 | 12.83026 | 3252 ft | 249 kts | 264° |
| 2026-04-23 17:03 | 55.41608 | 12.79997 | 3217 ft | 250 kts | 264° |
| 2026-04-23 17:03 | 55.41393 | 12.76969 | 3220 ft | 250 kts | 264° |
| 2026-04-23 17:03 | 55.41183 | 12.73939 | 3150 ft | 249 kts | 264° |
| 2026-04-23 17:03 | 55.40974 | 12.70877 | 3080 ft | 251 kts | 265° |
| 2026-04-23 17:04 | 55.40738 | 12.67821 | 3054 ft | 253 kts | 265° |
| 2026-04-23 17:04 | 55.40494 | 12.64755 | 3043 ft | 253 kts | 264° |
| 2026-04-23 17:04 | 55.40258 | 12.61680 | 3037 ft | 250 kts | 264° |
| 2026-04-23 17:04 | 55.40044 | 12.58677 | 3034 ft | 249 kts | 265° |
| 2026-04-23 17:05 | 55.39916 | 12.55648 | 3023 ft | 248 kts | 276° |
| 2026-04-23 17:05 | 55.40447 | 12.52765 | 2951 ft | 244 kts | 300° |
| 2026-04-23 17:05 | 55.41324 | 12.50201 | 2551 ft | 245 kts | 304° |
| 2026-04-23 17:05 | 55.42248 | 12.47697 | 2160 ft | 246 kts | 304° |
| 2026-04-23 17:06 | 55.43191 | 12.45182 | 2043 ft | 244 kts | 304° |
| 2026-04-23 17:06 | 55.44182 | 12.42752 | 2030 ft | 246 kts | 314° |
| 2026-04-23 17:06 | 55.45625 | 12.41183 | 2018 ft | 247 kts | 344° |
| 2026-04-23 17:06 | 55.47332 | 12.41135 | 2021 ft | 253 kts | 13° |
| 2026-04-23 17:07 | 55.48856 | 12.42627 | 2016 ft | 249 kts | 44° |
| 2026-04-23 17:07 | 55.49872 | 12.45021 | 2024 ft | 235 kts | 53° |
| 2026-04-23 17:07 | 55.50845 | 12.47262 | 2008 ft | 224 kts | 46° |
| 2026-04-23 17:07 | 55.51933 | 12.49189 | 1867 ft | 220 kts | 39° |
| 2026-04-23 17:08 | 55.53073 | 12.50908 | 1699 ft | 210 kts | 37° |
| 2026-04-23 17:08 | 55.54167 | 12.52538 | 1400 ft | 201 kts | 38° |
| 2026-04-23 17:08 | 55.55173 | 12.54089 | 1141 ft | 179 kts | 38° |
| 2026-04-23 17:08 | 55.56056 | 12.55462 | 882 ft | 162 kts | 39° |
| 2026-04-23 17:09 | 55.56866 | 12.56717 | 635 ft | 146 kts | 38° |
| 2026-04-23 17:09 | 55.57620 | 12.57882 | 445 ft | 141 kts | 38° |
| 2026-04-23 17:09 | 55.58359 | 12.59035 | 278 ft | 142 kts | 39° |
| 2026-04-23 17:09 | 55.59097 | 12.60180 | 103 ft | 140 kts | 38° |
| 2026-04-23 17:10 | 55.59811 | 12.61274 | 31 ft | 126 kts | 38° |
| 2026-04-23 17:10 | 55.60541 | 12.62405 | 224 ft | 155 kts | 37° |
| 2026-04-23 17:10 | 55.61454 | 12.63624 | 714 ft | 172 kts | 20° |
| 2026-04-23 17:10 | 55.62537 | 12.64165 | 1483 ft | 157 kts | 7° |
| 2026-04-23 17:11 | 55.63564 | 12.64462 | 1950 ft | 156 kts | 4° |
| 2026-04-23 17:11 | 55.64673 | 12.64745 | 2165 ft | 166 kts | 6° |
| 2026-04-23 17:11 | 55.65870 | 12.64993 | 2416 ft | 179 kts | 5° |
| 2026-04-23 17:11 | 55.67136 | 12.65020 | 2677 ft | 190 kts | 346° |
| 2026-04-23 17:12 | 55.68283 | 12.63732 | 2919 ft | 205 kts | 307° |
| 2026-04-23 17:12 | 55.68825 | 12.61321 | 2929 ft | 218 kts | 275° |
| 2026-04-23 17:12 | 55.68808 | 12.58587 | 2975 ft | 223 kts | 267° |
| 2026-04-23 17:12 | 55.68645 | 12.55851 | 2995 ft | 222 kts | 264° |
| 2026-04-23 17:13 | 55.68470 | 12.53155 | 2999 ft | 221 kts | 265° |
| 2026-04-23 17:13 | 55.68279 | 12.50438 | 3002 ft | 222 kts | 264° |
| 2026-04-23 17:13 | 55.68081 | 12.47715 | 3003 ft | 223 kts | 265° |
| 2026-04-23 17:13 | 55.67874 | 12.44992 | 3004 ft | 224 kts | 264° |
| 2026-04-23 17:14 | 55.67428 | 12.42314 | 2981 ft | 226 kts | 239° |
| 2026-04-23 17:14 | 55.66323 | 12.40343 | 3006 ft | 228 kts | 219° |
| 2026-04-23 17:14 | 55.65005 | 12.38764 | 3010 ft | 230 kts | 215° |
| 2026-04-23 17:14 | 55.63660 | 12.37278 | 3005 ft | 228 kts | 214° |
| 2026-04-23 17:15 | 55.62281 | 12.35779 | 3005 ft | 232 kts | 214° |
| 2026-04-23 17:15 | 55.60907 | 12.34293 | 3004 ft | 231 kts | 213° |
| 2026-04-23 17:15 | 55.59526 | 12.32788 | 3005 ft | 233 kts | 214° |
| 2026-04-23 17:15 | 55.58156 | 12.31293 | 3005 ft | 232 kts | 214° |
| 2026-04-23 17:16 | 55.56786 | 12.29801 | 3007 ft | 231 kts | 214° |
| 2026-04-23 17:16 | 55.55403 | 12.28300 | 3003 ft | 231 kts | 214° |
| 2026-04-23 17:16 | 55.54041 | 12.26822 | 3007 ft | 231 kts | 214° |
| 2026-04-23 17:16 | 55.52688 | 12.25359 | 3005 ft | 222 kts | 214° |
| 2026-04-23 17:17 | 55.51436 | 12.24018 | 3074 ft | 198 kts | 213° |
| 2026-04-23 17:17 | 55.50163 | 12.23257 | 3001 ft | 196 kts | 182° |
| 2026-04-23 17:17 | 55.48864 | 12.23941 | 3018 ft | 199 kts | 151° |
| 2026-04-23 17:17 | 55.47690 | 12.25294 | 3015 ft | 199 kts | 145° |
| 2026-04-23 17:18 | 55.45467 | 12.28182 | 3007 ft | 199 kts | 141° |
| 2026-04-23 17:18 | 55.44675 | 12.30160 | 2985 ft | 197 kts | 103° |
| 2026-04-23 17:18 | 55.44647 | 12.32547 | 3015 ft | 194 kts | 79° |
| 2026-04-23 17:19 | 55.44902 | 12.34864 | 3009 ft | 195 kts | 75° |
| 2026-04-23 17:19 | 55.45243 | 12.37220 | 3006 ft | 195 kts | 68° |
| 2026-04-23 17:19 | 55.45858 | 12.39310 | 3001 ft | 192 kts | 51° |
| 2026-04-23 17:19 | 55.46724 | 12.41088 | 3004 ft | 190 kts | 41° |
| 2026-04-23 17:20 | 55.47703 | 12.42631 | 2941 ft | 189 kts | 37° |
| 2026-04-23 17:20 | 55.49729 | 12.45632 | 2473 ft | 189 kts | 37° |
| 2026-04-23 17:21 | 55.51638 | 12.48583 | 2007 ft | 170 kts | 38° |
| 2026-04-23 17:21 | 55.52474 | 12.49889 | 1765 ft | 154 kts | 38° |
| 2026-04-23 17:21 | 55.54030 | 12.52302 | 1351 ft | 146 kts | 38° |
| 2026-04-23 17:22 | 55.54793 | 12.53485 | 1172 ft | 144 kts | 39° |
| 2026-04-23 17:22 | 55.56297 | 12.55825 | 781 ft | 145 kts | 38° |
| 2026-04-23 17:23 | 55.57801 | 12.58160 | 401 ft | 143 kts | 39° |
| 2026-04-23 17:23 | 55.58556 | 12.59354 | 213 ft | 146 kts | 39° |
| 2026-04-23 17:23 | 55.60035 | 12.61610 | 12 ft | 120 kts | 39° |
| 2026-04-23 17:24 | 55.60554 | 12.62415 | 15 ft | 79 kts | 42° |
| 2026-04-23 17:24 | 55.60868 | 12.62827 | 19 ft | 22 kts | 14° |
| 2026-04-23 17:24 | 55.61117 | 12.62930 | 22 ft | 13 kts | 23° |
| 2026-04-23 17:25 | 55.61264 | 12.63124 | 20 ft | 13 kts | 38° |
| 2026-04-23 17:25 | 55.61332 | 12.63225 | 22 ft | 12 kts | 40° |
| 2026-04-23 17:26 | 55.61464 | 12.63427 | 22 ft | 13 kts | 43° |
| 2026-04-23 17:26 | 55.61618 | 12.63668 | 24 ft | 15 kts | 38° |
| 2026-04-23 17:27 | 55.61794 | 12.63940 | 22 ft | 16 kts | 40° |
| 2026-04-23 17:27 | 55.61888 | 12.64063 | 20 ft | 17 kts | 34° |
| 2026-04-23 17:27 | 55.61999 | 12.64179 | 18 ft | 18 kts | 24° |
| 2026-04-23 17:27 | 55.62113 | 12.64270 | 15 ft | 15 kts | 25° |
| 2026-04-23 17:28 | 55.62204 | 12.64347 | 15 ft | 14 kts | 25° |
| 2026-04-23 17:28 | 55.62262 | 12.64459 | 15 ft | 11 kts | 64° |
| 2026-04-23 17:28 | 55.62292 | 12.64580 | 15 ft | 10 kts | 66° |
| 2026-04-23 17:28 | 55.62323 | 12.64704 | 15 ft | 11 kts | 65° |
| 2026-04-23 17:29 | 55.62365 | 12.64782 | 16 ft | 6 kts | 7° |
| 2026-04-23 17:29 | 55.62401 | 12.64783 | 17 ft | 4 kts | 0° |
| 2026-04-23 17:29 | 55.62452 | 12.64785 | 18 ft | 4 kts | 1° |
| 2026-04-23 17:30 | 55.62496 | 12.64779 | 18 ft | 9 kts | 355° |
| 2026-04-23 17:30 | 55.62660 | 12.64810 | 19 ft | 7 kts | 63° |
| 2026-04-23 17:30 | 55.62659 | 12.64874 | 19 ft | 3 kts | 102° |
| 2026-04-23 17:31 | 55.62656 | 12.64906 | 19 ft | 1 kts | 100° |